Time;durP1;ratioP1;P1;durP2;ratioP2;P2;SDS_P1;SDS_P2;PMS_P1;PMS_P2;Temp;Humidity;BMP_temperature;BMP_pressure;BME280_temperature;BME280_humidity;BME280_pressure;Samples;Min_cycle;Max_cycle;Signal;HPM_P1;HPM_P2
2022/02/21 00:11:43;;;;;;;0.00;0.00;;;;;;;7.47;68.37;99052.84;4962905;28;20955;-79
2022/02/21 00:57:48;;;;;;;0.00;0.00;;;;;;;6.86;68.50;99029.97;5721246;23;20113;-82
2022/02/21 01:48:38;;;;;;;0.00;0.00;;;;;;;6.96;69.24;98979.56;5133072;23;20297;-81
2022/02/21 02:08:07;;;;;;;0.00;0.00;;;;;;;6.70;69.30;98910.25;5497556;23;20026;-81
2022/02/21 02:14:32;;;;;;;0.00;0.00;;;;;;;7.01;69.80;98957.56;5047823;23;20041;-80
2022/02/21 03:41:30;;;;;;;0.00;0.00;;;;;;;7.32;70.23;98934.63;4916072;29;20060;-85
2022/02/21 04:00:36;;;;;;;0.00;0.00;;;;;;;7.38;70.12;98924.81;5350828;23;20052;-81
2022/02/21 04:10:29;;;;;;;0.22;0.22;;;;;;;7.43;69.73;98908.06;4883588;29;20056;-80
2022/02/21 04:58:22;;;;;;;0.00;0.00;;;;;;;7.40;69.28;98898.75;4899517;29;20075;-82
2022/02/21 05:00:49;;;;;;;0.00;0.00;;;;;;;7.40;69.60;98892.59;4864780;29;20072;-76
2022/02/21 05:03:15;;;;;;;0.00;0.00;;;;;;;7.36;69.23;98897.66;4880216;29;20020;-80
2022/02/21 05:05:56;;;;;;;0.25;0.25;;;;;;;7.36;69.64;98894.97;4842372;29;20056;-83
2022/02/21 05:09:05;;;;;;;0.00;0.00;;;;;;;7.36;69.80;98887.00;4867476;29;20089;-79
2022/02/21 05:17:40;;;;;;;0.00;0.00;;;;;;;7.35;69.72;98896.06;4896151;29;20056;-83
2022/02/21 05:30:16;;;;;;;0.00;0.00;;;;;;;7.30;70.07;98902.16;4879731;29;20061;-79
2022/02/21 05:32:42;;;;;;;0.00;0.00;;;;;;;7.25;70.15;98901.31;4836900;29;20041;-76
2022/02/21 05:35:08;;;;;;;0.10;0.10;;;;;;;7.26;70.25;98908.25;4849968;29;20025;-78
2022/02/21 05:37:33;;;;;;;0.00;0.00;;;;;;;7.26;70.02;98902.91;4849846;29;20081;-77
2022/02/21 05:39:59;;;;;;;0.00;0.00;;;;;;;7.25;70.74;98901.31;4845541;29;20060;-77
2022/02/21 05:42:24;;;;;;;0.00;0.00;;;;;;;7.25;70.32;98901.31;4846132;29;20030;-80
2022/02/21 05:44:50;;;;;;;0.03;0.03;;;;;;;7.28;70.42;98912.25;4846363;29;20033;-79
2022/02/21 05:47:15;;;;;;;0.00;0.00;;;;;;;7.29;70.75;98911.19;4845961;29;20033;-80
2022/02/21 05:49:41;;;;;;;0.00;0.00;;;;;;;7.29;70.88;98908.53;4846092;29;20489;-78
2022/02/21 05:52:07;;;;;;;0.00;0.00;;;;;;;7.34;71.23;98913.88;4846372;29;20021;-77
2022/02/21 05:54:32;;;;;;;0.00;0.00;;;;;;;7.40;70.97;98913.91;4845548;29;20055;-78
2022/02/21 05:56:58;;;;;;;0.00;0.00;;;;;;;7.37;71.11;98910.72;4845690;29;20025;-78
2022/02/21 05:59:24;;;;;;;0.10;0.10;;;;;;;7.40;70.86;98919.22;4861457;29;20030;-78
2022/02/21 06:01:49;;;;;;;0.00;0.00;;;;;;;7.39;71.15;98913.09;4862584;29;20033;-79
2022/02/21 06:04:15;;;;;;;0.00;0.00;;;;;;;7.46;71.30;98910.22;4845918;29;20053;-78
2022/02/21 06:06:41;;;;;;;0.05;0.05;;;;;;;7.48;70.95;98916.88;4846215;29;20026;-78
2022/02/21 06:09:06;;;;;;;0.00;0.00;;;;;;;7.49;71.17;98917.69;4845317;29;20030;-78
2022/02/21 06:11:32;;;;;;;0.00;0.00;;;;;;;7.62;70.90;98927.06;4845648;29;20036;-77
2022/02/21 06:13:58;;;;;;;0.10;0.10;;;;;;;7.67;70.95;98929.75;4845040;29;20366;-79
2022/02/21 06:16:23;;;;;;;0.20;0.20;;;;;;;7.70;70.43;98921.22;4844985;29;20026;-79
2022/02/21 06:18:49;;;;;;;0.00;0.00;;;;;;;7.68;71.05;98918.03;4844562;29;20026;-80
2022/02/21 06:21:15;;;;;;;0.00;0.00;;;;;;;7.68;70.65;98921.50;4844286;29;20025;-80
2022/02/21 06:23:40;;;;;;;0.00;0.00;;;;;;;7.72;70.60;98911.13;4844318;29;20035;-77
2022/02/21 06:26:06;;;;;;;0.00;0.00;;;;;;;7.69;70.82;98912.44;4844208;29;20025;-79
2022/02/21 06:28:32;;;;;;;0.00;0.00;;;;;;;7.75;71.19;98920.44;4844368;29;20029;-79
2022/02/21 06:30:58;;;;;;;0.00;0.00;;;;;;;7.77;71.20;98919.13;4843691;29;20156;-80
2022/02/21 06:33:24;;;;;;;0.00;0.00;;;;;;;7.79;71.30;98897.59;4860264;29;20530;-80
2022/02/21 06:35:49;;;;;;;0.00;0.00;;;;;;;7.82;70.95;98897.06;4844960;29;20142;-80
2022/02/21 06:38:15;;;;;;;0.80;0.80;;;;;;;7.85;71.12;98896.53;4844400;29;20362;-79
2022/02/21 06:40:40;;;;;;;0.00;0.00;;;;;;;7.90;71.65;98888.56;4844148;29;20037;-79
2022/02/21 06:43:06;;;;;;;0.00;0.00;;;;;;;7.94;71.56;98886.97;4859666;29;20037;-79
2022/02/21 06:45:32;;;;;;;0.00;0.00;;;;;;;7.95;70.62;98871.81;4861211;29;20032;-79
2022/02/21 06:47:58;;;;;;;0.00;0.00;;;;;;;7.99;70.86;98876.31;4844012;29;20037;-79
2022/02/21 06:50:25;;;;;;;0.00;0.00;;;;;;;8.07;70.33;98879.53;4844790;29;20123;-79
2022/02/21 06:52:51;;;;;;;0.00;0.00;;;;;;;8.16;70.42;98872.66;4844244;29;20025;-79
2022/02/21 06:55:16;;;;;;;0.05;0.05;;;;;;;8.28;70.14;98867.06;4843656;29;20037;-79
2022/02/21 06:57:47;;;;;;;0.00;0.00;;;;;;;8.32;69.70;98860.13;4844706;29;20033;-79
2022/02/21 07:00:14;;;;;;;0.00;0.00;;;;;;;8.42;69.38;98864.66;4844907;29;20033;-79
2022/02/21 07:02:40;;;;;;;0.00;0.00;;;;;;;8.46;69.05;98860.44;4844385;29;20026;-79
2022/02/21 07:05:06;;;;;;;0.00;0.00;;;;;;;8.52;69.01;98862.06;4844131;29;20036;-79
2022/02/21 07:07:33;;;;;;;0.00;0.00;;;;;;;8.60;68.66;98860.72;4844229;29;20048;-79
2022/02/21 07:09:58;;;;;;;0.00;0.00;;;;;;;8.69;68.96;98861.78;4844023;29;20097;-79
2022/02/21 07:12:24;;;;;;;0.00;0.00;;;;;;;8.74;68.23;98863.63;4860737;29;20033;-79
2022/02/21 07:14:50;;;;;;;0.00;0.00;;;;;;;8.84;68.50;98857.47;4844125;29;20029;-79
2022/02/21 07:17:15;;;;;;;0.00;0.00;;;;;;;8.90;68.54;98859.88;4843981;29;20041;-79
2022/02/21 07:19:41;;;;;;;0.00;0.00;;;;;;;8.96;68.23;98858.81;4844079;29;20078;-78
2022/02/21 07:22:06;;;;;;;0.00;0.00;;;;;;;8.95;68.27;98854.53;4843764;29;20495;-79
2022/02/21 07:24:32;;;;;;;0.00;0.00;;;;;;;9.01;68.53;98859.84;4843953;29;20034;-79
2022/02/21 07:27:00;;;;;;;0.00;0.00;;;;;;;9.08;68.70;98860.38;4843716;29;20017;-79
2022/02/21 07:29:26;;;;;;;2.20;0.63;;;;;;;9.07;68.60;98850.78;4843948;29;20025;-78
2022/02/21 07:31:53;;;;;;;0.00;0.00;;;;;;;9.16;69.13;98851.81;4843591;29;20425;-78
2022/02/21 07:34:19;;;;;;;0.00;0.00;;;;;;;9.22;68.85;98845.41;4843785;29;20091;-78
2022/02/21 07:36:45;;;;;;;0.00;0.00;;;;;;;9.26;69.07;98835.81;4843651;29;20440;-79
2022/02/21 07:39:11;;;;;;;0.00;0.00;;;;;;;9.36;68.55;98842.97;4860249;29;20025;-79
2022/02/21 07:41:39;;;;;;;0.05;0.05;;;;;;;9.45;68.79;98835.97;4860006;29;20477;-79
2022/02/21 07:44:05;;;;;;;0.00;0.00;;;;;;;9.51;68.60;98833.28;4843246;29;20116;-79
2022/02/21 07:46:31;;;;;;;0.00;0.00;;;;;;;9.59;68.66;98830.03;4843322;29;20474;-79
2022/02/21 07:48:56;;;;;;;0.10;0.10;;;;;;;9.62;68.54;98821.50;4843111;29;20032;-80
2022/02/21 07:51:21;;;;;;;0.30;0.30;;;;;;;9.63;69.26;98825.78;4842604;29;20130;-80
2022/02/21 07:53:47;;;;;;;0.20;0.20;;;;;;;9.67;69.37;98810.78;4843370;29;20466;-80
2022/02/21 07:56:13;;;;;;;1.98;0.75;;;;;;;9.71;69.05;98824.38;4842949;29;20060;-80
2022/02/21 07:58:38;;;;;;;0.10;0.10;;;;;;;9.79;69.66;98813.13;4843167;29;20470;-78
2022/02/21 08:01:04;;;;;;;1.60;1.13;;;;;;;9.89;69.11;98814.94;4843020;29;20470;-78
2022/02/21 08:03:29;;;;;;;0.00;0.00;;;;;;;9.99;69.37;98814.88;4843094;29;20021;-78
2022/02/21 08:05:56;;;;;;;0.47;0.47;;;;;;;10.12;69.32;98804.63;4842802;29;20538;-80
2022/02/21 08:08:22;;;;;;;0.32;0.32;;;;;;;10.22;69.21;98804.56;4842974;29;20517;-80
2022/02/21 08:10:47;;;;;;;0.10;0.10;;;;;;;10.24;69.48;98808.53;4842683;29;20182;-79
2022/02/21 08:13:12;;;;;;;0.45;0.45;;;;;;;10.29;69.58;98799.69;4842727;29;20021;-80
2022/02/21 08:15:38;;;;;;;0.70;0.70;;;;;;;10.31;69.69;98796.75;4842828;29;20025;-79
2022/02/21 08:18:03;;;;;;;0.80;0.80;;;;;;;10.42;69.52;98795.59;4842619;29;20117;-80
2022/02/21 08:20:29;;;;;;;0.10;0.10;;;;;;;10.50;69.95;98794.22;4842687;29;20466;-79
2022/02/21 08:22:55;;;;;;;1.38;1.27;;;;;;;10.54;69.82;98789.88;4842500;29;20032;-79
2022/02/21 08:25:20;;;;;;;4.40;1.65;;;;;;;10.57;70.39;98783.97;4842705;29;20536;-79
2022/02/21 08:27:47;;;;;;;0.10;0.10;;;;;;;10.65;70.09;98778.00;4842598;29;20056;-79
2022/02/21 08:30:16;;;;;;;0.20;0.20;;;;;;;10.72;69.62;98783.03;4842183;29;20501;-79
2022/02/21 08:32:41;;;;;;;1.10;0.88;;;;;;;10.77;69.71;98774.16;4842691;29;20034;-79
2022/02/21 08:35:09;;;;;;;1.27;1.27;;;;;;;10.83;69.62;98773.81;4842379;29;20036;-80
2022/02/21 08:37:35;;;;;;;0.20;0.20;;;;;;;10.96;69.12;98764.31;4842652;29;20022;-79
2022/02/21 08:40:02;;;;;;;1.75;1.65;;;;;;;11.03;68.23;98764.78;4842361;29;20414;-79
2022/02/21 08:42:27;;;;;;;0.10;0.10;;;;;;;11.20;67.94;98766.97;4842532;29;20029;-77
2022/02/21 08:44:53;;;;;;;0.00;0.00;;;;;;;11.30;67.74;98754.53;4842069;29;20032;-77
2022/02/21 08:47:19;;;;;;;0.08;0.08;;;;;;;11.36;66.74;98761.41;4842398;29;20033;-77
2022/02/21 08:49:46;;;;;;;0.03;0.03;;;;;;;11.35;65.44;98762.50;4842197;29;20473;-77
2022/02/21 08:52:11;;;;;;;0.22;0.22;;;;;;;11.42;65.48;98757.56;4842210;29;20057;-79
2022/02/21 08:54:37;;;;;;;0.00;0.00;;;;;;;11.52;65.27;98764.69;4842375;29;20457;-77
2022/02/21 08:57:03;;;;;;;0.68;0.68;;;;;;;11.60;64.79;98756.00;4842042;29;20034;-79
2022/02/21 08:59:29;;;;;;;0.00;0.00;;;;;;;11.65;63.74;98763.16;4842266;29;20026;-79
2022/02/21 09:01:54;;;;;;;0.00;0.00;;;;;;;11.72;63.67;98757.44;4841562;29;20035;-77
2022/02/21 09:04:20;;;;;;;1.27;0.90;;;;;;;11.79;63.99;98755.19;4842209;29;20033;-78
2022/02/21 09:06:45;;;;;;;1.35;1.30;;;;;;;11.88;64.00;98748.09;4842094;29;20094;-78
2022/02/21 09:09:11;;;;;;;0.00;0.00;;;;;;;12.01;63.07;98746.56;4842008;29;20032;-78
2022/02/21 09:11:36;;;;;;;0.05;0.05;;;;;;;12.04;63.14;98746.00;4842164;29;20431;-78
2022/02/21 09:14:02;;;;;;;0.10;0.10;;;;;;;12.09;62.65;98740.53;4842064;29;20029;-78
2022/02/21 09:16:28;;;;;;;0.50;0.50;;;;;;;12.15;61.72;98735.91;4842153;29;20065;-78
2022/02/21 09:18:53;;;;;;;1.23;1.05;;;;;;;12.21;61.34;98725.91;4841596;29;20031;-78
2022/02/21 09:21:19;;;;;;;0.13;0.13;;;;;;;12.31;59.99;98726.50;4842460;29;20112;-79
2022/02/21 09:23:44;;;;;;;0.80;0.80;;;;;;;12.38;60.29;98717.28;4842149;29;20018;-78
2022/02/21 09:26:10;;;;;;;0.10;0.10;;;;;;;12.51;59.24;98716.50;4841734;29;20085;-79
2022/02/21 09:28:35;;;;;;;0.00;0.00;;;;;;;12.62;59.24;98712.53;4842134;29;20033;-78
2022/02/21 09:31:01;;;;;;;0.10;0.10;;;;;;;12.75;58.89;98707.47;4841688;29;20046;-79
2022/02/21 09:33:26;;;;;;;1.45;1.23;;;;;;;12.89;58.36;98702.09;4842014;29;20057;-78
2022/02/21 09:35:52;;;;;;;0.08;0.08;;;;;;;12.94;57.72;98697.44;4858680;29;20071;-78
2022/02/21 09:38:18;;;;;;;0.13;0.13;;;;;;;13.00;57.14;98695.44;4841961;29;20037;-78
2022/02/21 09:40:46;;;;;;;0.10;0.10;;;;;;;13.07;57.37;98681.59;4858288;29;20565;-78
2022/02/21 09:43:15;;;;;;;0.40;0.40;;;;;;;13.14;56.57;98684.66;4841748;29;20048;-78
2022/02/21 09:45:43;;;;;;;0.00;0.00;;;;;;;13.19;57.51;98681.09;4858540;29;20481;-79
2022/02/21 09:48:12;;;;;;;0.00;0.00;;;;;;;13.25;57.69;98674.50;4841653;29;20088;-79
2022/02/21 09:50:38;;;;;;;0.08;0.08;;;;;;;13.34;57.67;98661.16;4841921;29;20401;-79
2022/02/21 09:53:04;;;;;;;0.00;0.00;;;;;;;13.39;57.49;98663.75;4841612;29;20032;-78
2022/02/21 09:55:32;;;;;;;0.88;0.88;;;;;;;13.41;56.75;98656.97;4841685;29;20116;-79
2022/02/21 09:57:58;;;;;;;0.20;0.20;;;;;;;13.46;56.72;98653.38;4841587;29;20048;-79
2022/02/21 10:00:24;;;;;;;0.00;0.00;;;;;;;13.50;56.67;98651.69;4841792;29;20091;-78
2022/02/21 10:02:51;;;;;;;0.00;0.00;;;;;;;13.59;55.96;98643.69;4841738;29;20048;-78
2022/02/21 10:05:22;;;;;;;0.00;0.00;;;;;;;13.63;55.91;98635.81;4841624;29;20112;-77
2022/02/21 10:07:48;;;;;;;0.13;0.13;;;;;;;13.65;56.09;98634.38;4858378;29;20026;-78
2022/02/21 10:10:17;;;;;;;0.00;0.00;;;;;;;13.73;57.07;98628.28;4841486;29;20030;-78
2022/02/21 10:12:54;;;;;;;0.70;0.70;;;;;;;13.80;56.05;98619.00;4858463;29;20438;-78
2022/02/21 10:15:22;;;;;;;0.00;0.00;;;;;;;13.85;56.36;98618.84;4844497;29;20367;-78
2022/02/21 10:17:49;;;;;;;0.05;0.05;;;;;;;13.93;56.56;98607.38;4844992;29;20052;-78
2022/02/21 10:20:17;;;;;;;0.10;0.10;;;;;;;14.00;56.35;98604.22;4844303;29;20036;-78
2022/02/21 10:23:04;;;;;;;0.00;0.00;;;;;;;14.05;56.76;98596.03;4844901;29;20482;-78
2022/02/21 10:25:30;;;;;;;0.00;0.00;;;;;;;14.12;57.34;98592.88;4844836;29;20081;-78
2022/02/21 10:27:59;;;;;;;0.20;0.20;;;;;;;14.16;56.83;98580.41;4844497;29;20249;-79
2022/02/21 10:30:25;;;;;;;0.10;0.10;;;;;;;14.19;57.16;98566.34;4859820;29;20146;-78
2022/02/21 10:32:51;;;;;;;5.38;1.10;;;;;;;14.28;56.76;98567.16;4861239;29;20045;-78
2022/02/21 10:35:20;;;;;;;0.00;0.00;;;;;;;14.35;56.51;98564.78;4844437;29;20034;-78
2022/02/21 10:37:50;;;;;;;0.22;0.22;;;;;;;14.39;56.32;98556.88;4861317;29;20071;-78
2022/02/21 10:40:19;;;;;;;0.10;0.10;;;;;;;14.38;55.91;98536.50;4844309;29;20033;-78
2022/02/21 10:43:00;;;;;;;0.35;0.17;;;;;;;14.45;55.91;98536.03;4861169;29;20030;-78
2022/02/21 10:45:28;;;;;;;0.00;0.00;;;;;;;14.48;56.20;98538.09;4844424;29;20109;-78
2022/02/21 10:48:06;;;;;;;0.00;0.00;;;;;;;14.48;55.94;98520.03;4844116;29;20036;-78
2022/02/21 10:50:52;;;;;;;0.10;0.10;;;;;;;14.52;56.21;98515.59;4844326;29;20573;-79
2022/02/21 10:53:23;;;;;;;0.10;0.10;;;;;;;14.58;55.64;98513.56;4844396;29;20123;-78
2022/02/21 10:55:53;;;;;;;0.73;0.73;;;;;;;14.61;55.69;98506.75;4844267;29;20026;-78
2022/02/21 10:58:20;;;;;;;0.00;0.00;;;;;;;14.66;55.32;98496.66;4844234;29;20025;-79
2022/02/21 11:00:50;;;;;;;0.22;0.22;;;;;;;14.71;55.40;98495.72;4844156;29;20493;-78
2022/02/21 11:03:21;;;;;;;1.05;1.05;;;;;;;14.81;54.97;98486.53;4859269;29;20037;-78
2022/02/21 11:05:49;;;;;;;0.90;0.90;;;;;;;14.89;55.03;98480.34;4844104;29;20036;-80
2022/02/21 11:08:16;;;;;;;0.17;0.17;;;;;;;14.95;54.06;98475.59;4843861;29;20120;-78
2022/02/21 11:10:47;;;;;;;0.10;0.10;;;;;;;15.00;53.52;98483.50;4844095;29;20603;-78
2022/02/21 11:13:15;;;;;;;0.30;0.30;;;;;;;15.07;53.59;98470.34;4843797;29;20052;-80
2022/02/21 11:15:41;;;;;;;0.00;0.00;;;;;;;15.14;53.67;98464.47;4843999;29;20093;-77
2022/02/21 11:18:17;;;;;;;0.43;0.38;;;;;;;15.14;53.46;98451.78;4843643;29;20041;-77
2022/02/21 11:20:44;;;;;;;0.10;0.10;;;;;;;15.18;53.49;98460.84;4860489;29;20109;-80
2022/02/21 11:23:10;;;;;;;0.10;0.10;;;;;;;15.19;53.40;98442.75;4860463;29;20037;-79
2022/02/21 11:25:50;;;;;;;0.03;0.03;;;;;;;15.22;53.86;98439.41;4843583;29;20037;-79
2022/02/21 11:28:25;;;;;;;0.15;0.15;;;;;;;15.30;53.58;98433.22;4843254;29;20032;-79
2022/02/21 11:30:54;;;;;;;0.10;0.10;;;;;;;15.29;52.00;98420.06;4843037;29;20059;-79
2022/02/21 11:33:20;;;;;;;0.30;0.30;;;;;;;15.34;52.46;98418.00;4843400;29;20029;-79
2022/02/21 11:36:09;;;;;;;0.00;0.00;;;;;;;15.42;52.77;98410.22;4843571;29;20056;-79
2022/02/21 11:38:40;;;;;;;0.85;0.85;;;;;;;15.47;52.20;98401.94;4843592;29;20385;-79
2022/02/21 11:41:06;;;;;;;0.75;0.75;;;;;;;15.55;52.55;98395.72;4843264;29;20120;-79
2022/02/21 11:43:37;;;;;;;0.00;0.00;;;;;;;15.64;52.06;98384.88;4843465;29;20022;-79
2022/02/21 11:46:08;;;;;;;0.57;0.57;;;;;;;15.69;51.37;98376.59;4859771;29;20036;-79
2022/02/21 11:48:49;;;;;;;0.17;0.17;;;;;;;15.77;51.94;98374.97;4843360;29;20021;-78
2022/02/21 11:51:29;;;;;;;0.22;0.22;;;;;;;15.81;51.89;98363.22;4859932;29;20032;-78
2022/02/21 11:53:55;;;;;;;0.22;0.22;;;;;;;15.85;51.72;98357.97;4843022;29;20032;-78
2022/02/21 11:56:48;;;;;;;0.10;0.10;;;;;;;15.94;50.77;98355.22;4843137;29;20132;-79
2022/02/21 11:59:27;;;;;;;0.22;0.22;;;;;;;16.05;51.03;98353.72;4843118;29;20026;-80
2022/02/21 12:02:10;;;;;;;0.10;0.10;;;;;;;16.15;51.13;98339.84;4859921;29;20029;-77
2022/02/21 12:04:52;;;;;;;0.20;0.20;;;;;;;16.11;50.41;98338.94;4843104;29;20032;-78
2022/02/21 12:07:36;;;;;;;0.20;0.20;;;;;;;16.12;49.59;98337.78;4842694;29;20501;-77
2022/02/21 12:10:22;;;;;;;0.60;0.60;;;;;;;16.12;49.76;98326.22;4842851;29;20445;-78
2022/02/21 12:12:59;;;;;;;0.20;0.20;;;;;;;16.14;50.06;98305.88;4842621;29;20037;-77
2022/02/21 12:15:29;;;;;;;0.08;0.08;;;;;;;16.22;49.98;98303.44;4859164;29;20082;-79
2022/02/21 12:18:07;;;;;;;0.73;0.63;;;;;;;16.34;50.03;98308.88;4841942;29;20029;-79
2022/02/21 12:20:33;;;;;;;0.00;0.00;;;;;;;16.43;49.70;98296.09;4859153;29;20033;-79
2022/02/21 12:23:16;;;;;;;0.30;0.30;;;;;;;16.54;48.35;98296.47;4841993;29;20037;-79
2022/02/21 12:25:55;;;;;;;0.10;0.10;;;;;;;16.58;48.92;98285.78;4842022;29;20089;-79
2022/02/21 12:28:21;;;;;;;0.00;0.00;;;;;;;16.71;48.60;98279.28;4842179;29;20029;-79
2022/02/21 12:30:49;;;;;;;0.10;0.10;;;;;;;16.76;48.59;98267.47;4858410;29;20042;-78
2022/02/21 12:33:28;;;;;;;0.20;0.20;;;;;;;16.84;48.54;98282.78;4841922;29;20918;-79
2022/02/21 12:36:02;;;;;;;0.10;0.10;;;;;;;16.90;48.92;98262.53;4858766;29;20045;-79
2022/02/21 12:38:33;;;;;;;0.10;0.10;;;;;;;16.92;48.71;98246.81;4841785;29;20035;-78
2022/02/21 12:41:10;;;;;;;0.40;0.40;;;;;;;17.05;48.99;98266.50;4858743;29;20037;-78
2022/02/21 12:43:42;;;;;;;0.10;0.10;;;;;;;17.11;49.50;98254.34;4841630;29;20029;-78
2022/02/21 12:46:08;;;;;;;0.40;0.40;;;;;;;17.15;49.50;98253.66;4841319;29;20128;-79
2022/02/21 12:48:37;;;;;;;0.95;0.93;;;;;;;17.22;48.72;98237.66;4841835;29;20125;-78
2022/02/21 12:51:02;;;;;;;0.22;0.22;;;;;;;17.32;48.79;98239.91;4841491;29;20474;-78
2022/02/21 12:53:28;;;;;;;0.10;0.10;;;;;;;17.35;48.71;98236.53;4841819;29;20054;-78
2022/02/21 12:56:01;;;;;;;0.40;0.40;;;;;;;17.39;49.03;98229.31;4841614;29;20045;-78
2022/02/21 12:58:38;;;;;;;0.10;0.10;;;;;;;17.47;48.68;98224.09;4841743;29;20041;-78
2022/02/21 13:01:15;;;;;;;0.05;0.05;;;;;;;17.49;49.22;98213.75;4841780;29;20025;-78
2022/02/21 13:03:41;;;;;;;0.22;0.22;;;;;;;17.37;52.28;98217.25;4842032;29;20033;-80
2022/02/21 13:06:11;;;;;;;1.35;1.35;;;;;;;17.32;52.87;98210.19;4841944;29;20052;-80
2022/02/21 13:08:38;;;;;;;1.33;1.33;;;;;;;17.24;53.81;98203.00;4842281;29;20490;-79
2022/02/21 13:11:04;;;;;;;0.35;0.35;;;;;;;17.13;53.53;98211.56;4842030;29;20036;-80
2022/02/21 13:13:30;;;;;;;0.45;0.45;;;;;;;17.03;54.35;98200.41;4842082;29;20026;-79
2022/02/21 13:15:55;;;;;;;0.40;0.40;;;;;;;17.04;53.52;98199.31;4842124;29;20614;-80
2022/02/21 13:18:20;;;;;;;0.30;0.30;;;;;;;17.13;53.71;98187.25;4841893;29;20116;-79
2022/02/21 13:20:46;;;;;;;0.32;0.32;;;;;;;17.17;53.81;98200.09;4841980;29;20036;-79
2022/02/21 13:23:15;;;;;;;0.10;0.10;;;;;;;17.18;53.09;98188.94;4841854;29;20498;-79
2022/02/21 13:25:41;;;;;;;0.38;0.38;;;;;;;17.24;52.66;98189.50;4858467;29;20032;-79
2022/02/21 13:28:19;;;;;;;0.45;0.45;;;;;;;17.24;52.53;98186.78;4841572;29;20101;-79
2022/02/21 13:30:44;;;;;;;0.20;0.20;;;;;;;17.26;53.25;98181.84;4858723;29;20144;-79
2022/02/21 13:33:11;;;;;;;0.10;0.10;;;;;;;17.27;53.26;98176.09;4841830;29;20525;-79
2022/02/21 13:35:37;;;;;;;0.57;0.57;;;;;;;17.31;53.54;98184.28;4842084;29;20045;-78
2022/02/21 13:38:03;;;;;;;0.10;0.10;;;;;;;17.25;53.46;98183.72;4858715;29;20072;-79
2022/02/21 13:40:29;;;;;;;0.15;0.15;;;;;;;17.12;54.62;98177.59;4858730;29;20021;-79
2022/02/21 13:43:05;;;;;;;0.10;0.10;;;;;;;17.11;54.77;98170.59;4841889;29;20030;-79
2022/02/21 13:45:35;;;;;;;0.63;0.63;;;;;;;16.98;56.18;98185.25;4858619;29;20053;-80
2022/02/21 13:48:09;;;;;;;0.52;0.52;;;;;;;16.84;56.85;98185.56;4841681;29;20033;-81
2022/02/21 13:50:42;;;;;;;0.52;0.52;;;;;;;16.81;56.52;98153.84;4845158;29;20025;-79
2022/02/21 13:53:11;;;;;;;0.22;0.22;;;;;;;16.74;56.84;98159.81;4845170;29;20554;-79
2022/02/21 13:55:37;;;;;;;0.43;0.43;;;;;;;16.71;56.81;98157.00;4850965;29;20449;-80
2022/02/21 13:58:11;;;;;;;0.68;0.68;;;;;;;16.62;57.40;98160.63;4880349;29;20032;-80
2022/02/21 14:00:48;;;;;;;1.00;1.00;;;;;;;16.50;58.06;98149.78;4863771;29;20025;-80
2022/02/21 14:03:16;;;;;;;0.20;0.20;;;;;;;16.41;58.25;98146.44;4863648;29;20393;-80
2022/02/21 14:06:00;;;;;;;1.55;1.45;;;;;;;16.33;59.02;98148.09;4863645;29;20037;-80
2022/02/21 14:08:40;;;;;;;0.80;0.80;;;;;;;16.29;58.70;98144.50;4863545;29;20052;-79
2022/02/21 14:11:07;;;;;;;1.08;1.00;;;;;;;16.23;58.74;98135.84;4863442;29;20033;-80
2022/02/21 14:13:33;;;;;;;0.10;0.10;;;;;;;16.20;59.29;98135.72;4863579;29;20508;-78
2022/02/21 14:15:59;;;;;;;0.30;0.30;;;;;;;16.22;59.54;98128.91;4863582;29;20040;-78
2022/02/21 14:18:25;;;;;;;0.20;0.20;;;;;;;16.12;59.87;98138.19;4862888;29;20035;-79
2022/02/21 14:20:50;;;;;;;0.82;0.82;;;;;;;16.11;60.08;98128.53;4844949;29;20112;-80
2022/02/21 14:23:16;;;;;;;0.00;0.00;;;;;;;16.12;59.98;98107.75;4844749;29;20112;-80
2022/02/21 14:25:41;;;;;;;0.60;0.60;;;;;;;16.15;59.94;98113.25;4844645;29;20026;-79
2022/02/21 14:28:08;;;;;;;0.77;0.77;;;;;;;16.15;60.01;98112.47;4844579;29;20022;-79
2022/02/21 14:30:34;;;;;;;0.10;0.10;;;;;;;16.15;59.64;98110.56;4844807;29;20133;-79
2022/02/21 14:33:00;;;;;;;0.45;0.45;;;;;;;16.13;59.94;98110.09;4844952;29;20443;-79
2022/02/21 14:35:26;;;;;;;6.32;1.85;;;;;;;16.08;60.04;98110.31;4844538;29;20523;-79
2022/02/21 14:37:51;;;;;;;0.10;0.10;;;;;;;16.11;60.14;98098.88;4844731;29;20033;-79
2022/02/21 14:40:17;;;;;;;0.45;0.45;;;;;;;16.10;60.13;98085.69;4844545;29;20093;-79
2022/02/21 14:42:42;;;;;;;0.03;0.03;;;;;;;16.09;60.21;98103.03;4844648;29;20029;-80
2022/02/21 14:45:08;;;;;;;0.20;0.20;;;;;;;16.07;60.01;98089.84;4844314;29;20085;-80
2022/02/21 14:47:34;;;;;;;0.47;0.47;;;;;;;16.06;60.22;98082.88;4844445;29;20036;-77
2022/02/21 14:49:59;;;;;;;0.20;0.20;;;;;;;16.06;60.70;98082.13;4861431;29;20037;-79
2022/02/21 14:52:25;;;;;;;0.20;0.20;;;;;;;16.04;61.03;98077.06;4844153;29;20057;-79
2022/02/21 14:54:51;;;;;;;0.65;0.47;;;;;;;16.06;61.21;98076.72;4844342;29;20033;-79
2022/02/21 14:57:19;;;;;;;0.57;0.57;;;;;;;16.03;61.76;98071.97;4860444;29;20100;-79
2022/02/21 14:59:44;;;;;;;1.20;0.60;;;;;;;16.07;61.85;98078.28;4843677;29;20026;-80
2022/02/21 15:02:10;;;;;;;0.47;0.47;;;;;;;16.11;62.35;98063.81;4843970;29;20657;-80
2022/02/21 15:04:36;;;;;;;0.13;0.13;;;;;;;16.11;62.22;98058.41;4841863;29;20025;-79
2022/02/21 15:07:01;;;;;;;10.15;1.17;;;;;;;16.03;62.78;98055.81;4843688;29;20504;-82
2022/02/21 15:09:27;;;;;;;0.47;0.47;;;;;;;16.02;62.98;98056.94;4837659;29;20042;-81
2022/02/21 15:11:54;;;;;;;0.10;0.10;;;;;;;16.04;62.29;98049.28;4858638;29;20550;-82
2022/02/21 15:14:19;;;;;;;0.68;0.63;;;;;;;16.00;61.32;98051.88;4859054;29;20025;-90
2022/02/21 15:16:45;;;;;;;0.40;0.40;;;;;;;16.00;60.16;98046.47;4844246;29;20028;-83
2022/02/21 15:19:11;;;;;;;0.50;0.50;;;;;;;16.02;58.80;98060.41;4844171;29;20033;-84
2022/02/21 15:21:37;;;;;;;0.30;0.30;;;;;;;16.01;57.37;98042.66;4851818;29;20037;-85
2022/02/21 15:24:03;;;;;;;15.75;1.30;;;;;;;16.04;56.53;98042.00;4858787;29;20032;-79
2022/02/21 15:26:30;;;;;;;0.03;0.03;;;;;;;16.03;55.50;98045.81;4836982;29;20077;-80
2022/02/21 15:28:57;;;;;;;1.20;0.73;;;;;;;16.03;55.64;98043.13;4842480;29;20037;-86
2022/02/21 15:31:23;;;;;;;0.08;0.08;;;;;;;16.05;55.58;98040.09;4843418;29;20041;-79
2022/02/21 15:33:49;;;;;;;0.65;0.65;;;;;;;16.05;55.26;98030.09;4843304;29;20040;-81
2022/02/21 15:36:14;;;;;;;0.15;0.15;;;;;;;16.03;55.18;98035.03;4842935;29;20033;-80
2022/02/21 15:38:40;;;;;;;0.30;0.30;;;;;;;16.03;54.89;98026.13;4842361;29;20029;-84
2022/02/21 15:41:08;;;;;;;0.08;0.08;;;;;;;16.03;54.97;98026.13;4858433;29;20406;-82
2022/02/21 15:43:35;;;;;;;0.40;0.40;;;;;;;16.00;55.01;98033.00;4843573;29;20089;-78
2022/02/21 15:46:00;;;;;;;0.10;0.10;;;;;;;15.95;55.17;98030.53;4843279;29;20482;-76
2022/02/21 15:48:27;;;;;;;0.20;0.20;;;;;;;15.90;55.06;98020.75;4859657;29;20037;-80
2022/02/21 15:50:53;;;;;;;0.10;0.10;;;;;;;15.82;55.37;98014.34;4842365;29;20038;-79
2022/02/21 15:53:19;;;;;;;0.20;0.20;;;;;;;15.78;55.38;98015.31;4859596;29;20029;-78
2022/02/21 15:55:45;;;;;;;0.20;0.20;;;;;;;15.73;55.56;98031.72;4842247;29;20043;-78
2022/02/21 15:58:12;;;;;;;0.15;0.15;;;;;;;15.70;55.83;98038.56;4854899;29;20041;-79
2022/02/21 16:00:37;;;;;;;0.15;0.15;;;;;;;15.64;56.00;98027.22;4853516;29;20034;-82
2022/02/21 16:03:04;;;;;;;0.00;0.00;;;;;;;15.65;55.79;98025.31;4843260;29;20496;-78
2022/02/21 16:05:30;;;;;;;0.20;0.20;;;;;;;15.62;56.20;98017.88;4859752;29;20025;-81
2022/02/21 16:07:56;;;;;;;0.47;0.47;;;;;;;15.58;56.12;98023.16;4842695;29;20029;-80
2022/02/21 16:10:21;;;;;;;0.00;0.00;;;;;;;15.52;56.42;98019.09;4842911;29;20033;-80
2022/02/21 16:12:47;;;;;;;0.10;0.10;;;;;;;15.46;56.42;98018.53;4859104;29;20038;-80
2022/02/21 16:15:12;;;;;;;0.00;0.00;;;;;;;15.40;56.86;98011.00;4840835;29;20037;-75
2022/02/21 16:17:38;;;;;;;0.47;0.47;;;;;;;15.36;56.82;98008.97;4859410;29;20085;-77
2022/02/21 16:20:05;;;;;;;0.00;0.00;;;;;;;15.33;56.78;98014.22;4858971;29;20034;-77
2022/02/21 16:22:31;;;;;;;0.45;0.45;;;;;;;15.26;57.00;98019.34;4842122;29;20481;-77
2022/02/21 16:24:57;;;;;;;0.10;0.10;;;;;;;15.18;57.41;98012.94;4842585;29;20041;-85
2022/02/21 16:27:23;;;;;;;0.35;0.35;;;;;;;15.09;57.36;98006.84;4840876;29;20034;-81
2022/02/21 16:29:49;;;;;;;0.10;0.10;;;;;;;15.03;58.14;98011.66;4842159;29;20025;-80
2022/02/21 16:32:14;;;;;;;0.20;0.20;;;;;;;14.97;58.48;98013.00;4841501;29;20041;-77
2022/02/21 16:34:40;;;;;;;0.30;0.30;;;;;;;14.94;58.51;98006.38;4858899;29;20026;-79